South Bend, Indiana
Current Conditions -  °F | °C
As of 3:54 PM on Friday 28 Nov 2014 (Local Time) from KSBN Reporting Station
Scattered Clouds Scattered Clouds  
Wind Chill: -7°   Ceiling: Unl
Heat Index: -2°   Visibility: 10mi
Dew Point: -7°   Wind: 13mph
Humidity: 69%   Direction: 150°SSE
Pressure: 30.08"   Gusts: NA
Location:  41.68°N, 86.25°W
Report Text: KSBN 282054Z 15011KT 10SM SCT120 M02/M07 A3008 RMK AO2 SLP196 T10171067 56040
Loading
Personal Weather Stations






























Interactive Weather Map New forecast layout! Learn more

10-Day Weather Forecast

Advertisements
Track Severe Weather on mobile